sensor_id;sensor_type;location;lat;lon;timestamp;P1;durP1;ratioP1;P2;durP2;ratioP2
15878;SDS011;61999;51.514;14.614;2022-08-21T00:01:53;18.40;;;16.20;;
15878;SDS011;61999;51.514;14.614;2022-08-21T00:04:21;19.40;;;17.40;;
15878;SDS011;61999;51.514;14.614;2022-08-21T00:06:50;18.10;;;16.30;;
15878;SDS011;61999;51.514;14.614;2022-08-21T00:09:19;19.77;;;17.23;;
15878;SDS011;61999;51.514;14.614;2022-08-21T00:11:47;19.47;;;17.57;;
15878;SDS011;61999;51.514;14.614;2022-08-21T00:14:15;19.43;;;17.53;;
15878;SDS011;61999;51.514;14.614;2022-08-21T00:16:45;18.93;;;17.03;;
15878;SDS011;61999;51.514;14.614;2022-08-21T00:19:13;18.90;;;16.90;;
15878;SDS011;61999;51.514;14.614;2022-08-21T00:21:41;16.53;;;14.83;;
15878;SDS011;61999;51.514;14.614;2022-08-21T00:24:09;15.90;;;14.40;;
15878;SDS011;61999;51.514;14.614;2022-08-21T00:26:37;15.60;;;14.10;;
15878;SDS011;61999;51.514;14.614;2022-08-21T00:29:05;16.47;;;14.90;;
15878;SDS011;61999;51.514;14.614;2022-08-21T00:31:33;17.30;;;15.70;;
15878;SDS011;61999;51.514;14.614;2022-08-21T00:34:02;18.63;;;16.83;;
15878;SDS011;61999;51.514;14.614;2022-08-21T00:36:31;18.93;;;17.03;;
15878;SDS011;61999;51.514;14.614;2022-08-21T00:38:59;17.60;;;16.00;;
15878;SDS011;61999;51.514;14.614;2022-08-21T00:41:28;16.97;;;15.37;;
15878;SDS011;61999;51.514;14.614;2022-08-21T00:43:57;15.67;;;14.27;;
15878;SDS011;61999;51.514;14.614;2022-08-21T00:46:25;16.40;;;14.83;;
15878;SDS011;61999;51.514;14.614;2022-08-21T00:48:53;17.07;;;15.47;;
15878;SDS011;61999;51.514;14.614;2022-08-21T00:51:24;17.03;;;15.43;;
15878;SDS011;61999;51.514;14.614;2022-08-21T00:54:00;16.33;;;14.83;;
15878;SDS011;61999;51.514;14.614;2022-08-21T00:56:30;18.43;;;16.73;;
15878;SDS011;61999;51.514;14.614;2022-08-21T00:58:59;16.30;;;14.70;;
15878;SDS011;61999;51.514;14.614;2022-08-21T01:01:29;16.87;;;15.30;;
15878;SDS011;61999;51.514;14.614;2022-08-21T01:03:57;17.33;;;15.63;;
15878;SDS011;61999;51.514;14.614;2022-08-21T01:06:26;17.27;;;15.57;;
15878;SDS011;61999;51.514;14.614;2022-08-21T01:08:54;17.67;;;16.07;;
15878;SDS011;61999;51.514;14.614;2022-08-21T01:11:22;17.13;;;15.60;;
15878;SDS011;61999;51.514;14.614;2022-08-21T01:13:51;15.37;;;14.03;;
15878;SDS011;61999;51.514;14.614;2022-08-21T01:16:20;14.37;;;12.97;;
15878;SDS011;61999;51.514;14.614;2022-08-21T01:18:49;16.63;;;15.10;;
15878;SDS011;61999;51.514;14.614;2022-08-21T01:21:21;15.87;;;14.37;;
15878;SDS011;61999;51.514;14.614;2022-08-21T01:23:52;16.97;;;15.37;;
15878;SDS011;61999;51.514;14.614;2022-08-21T01:26:23;17.00;;;15.40;;
15878;SDS011;61999;51.514;14.614;2022-08-21T01:28:56;18.03;;;16.33;;
15878;SDS011;61999;51.514;14.614;2022-08-21T01:31:29;16.93;;;15.23;;
15878;SDS011;61999;51.514;14.614;2022-08-21T01:33:59;15.73;;;14.13;;
15878;SDS011;61999;51.514;14.614;2022-08-21T01:36:29;16.07;;;14.57;;
15878;SDS011;61999;51.514;14.614;2022-08-21T01:38:58;13.60;;;12.40;;
15878;SDS011;61999;51.514;14.614;2022-08-21T01:41:26;15.13;;;13.73;;
15878;SDS011;61999;51.514;14.614;2022-08-21T01:43:54;14.23;;;12.93;;
15878;SDS011;61999;51.514;14.614;2022-08-21T01:46:22;13.57;;;12.37;;
15878;SDS011;61999;51.514;14.614;2022-08-21T01:48:50;13.07;;;11.77;;
15878;SDS011;61999;51.514;14.614;2022-08-21T01:51:18;13.00;;;11.80;;
15878;SDS011;61999;51.514;14.614;2022-08-21T01:53:47;11.53;;;10.47;;
15878;SDS011;61999;51.514;14.614;2022-08-21T01:56:15;10.80;;;9.90;;
15878;SDS011;61999;51.514;14.614;2022-08-21T01:58:45;12.40;;;11.27;;
15878;SDS011;61999;51.514;14.614;2022-08-21T02:01:14;12.43;;;11.20;;
15878;SDS011;61999;51.514;14.614;2022-08-21T02:03:43;12.77;;;11.53;;
15878;SDS011;61999;51.514;14.614;2022-08-21T02:06:12;11.33;;;10.33;;
15878;SDS011;61999;51.514;14.614;2022-08-21T02:08:44;10.30;;;9.30;;
15878;SDS011;61999;51.514;14.614;2022-08-21T02:11:14;10.87;;;9.87;;
15878;SDS011;61999;51.514;14.614;2022-08-21T02:13:42;10.30;;;9.40;;
15878;SDS011;61999;51.514;14.614;2022-08-21T02:16:10;10.87;;;9.77;;
15878;SDS011;61999;51.514;14.614;2022-08-21T02:18:39;11.23;;;10.23;;
15878;SDS011;61999;51.514;14.614;2022-08-21T02:21:08;10.83;;;9.83;;
15878;SDS011;61999;51.514;14.614;2022-08-21T02:23:36;10.23;;;9.33;;
15878;SDS011;61999;51.514;14.614;2022-08-21T02:26:05;11.63;;;10.53;;
15878;SDS011;61999;51.514;14.614;2022-08-21T02:28:37;12.87;;;11.67;;
15878;SDS011;61999;51.514;14.614;2022-08-21T02:31:06;13.63;;;12.27;;
15878;SDS011;61999;51.514;14.614;2022-08-21T02:33:34;14.13;;;12.73;;
15878;SDS011;61999;51.514;14.614;2022-08-21T02:36:02;14.67;;;13.17;;
15878;SDS011;61999;51.514;14.614;2022-08-21T02:38:32;14.70;;;13.27;;
15878;SDS011;61999;51.514;14.614;2022-08-21T02:41:05;16.23;;;14.73;;
15878;SDS011;61999;51.514;14.614;2022-08-21T02:43:34;13.93;;;12.63;;
15878;SDS011;61999;51.514;14.614;2022-08-21T02:46:04;17.07;;;15.37;;
15878;SDS011;61999;51.514;14.614;2022-08-21T02:48:34;17.43;;;15.70;;
15878;SDS011;61999;51.514;14.614;2022-08-21T02:51:04;16.67;;;15.03;;
15878;SDS011;61999;51.514;14.614;2022-08-21T02:53:35;19.43;;;17.53;;
15878;SDS011;61999;51.514;14.614;2022-08-21T02:56:05;19.77;;;17.87;;
15878;SDS011;61999;51.514;14.614;2022-08-21T02:58:38;18.47;;;16.67;;
15878;SDS011;61999;51.514;14.614;2022-08-21T03:01:09;18.43;;;16.50;;
15878;SDS011;61999;51.514;14.614;2022-08-21T03:03:39;19.87;;;17.87;;
15878;SDS011;61999;51.514;14.614;2022-08-21T03:06:10;19.30;;;17.50;;
15878;SDS011;61999;51.514;14.614;2022-08-21T03:08:40;18.33;;;16.53;;
15878;SDS011;61999;51.514;14.614;2022-08-21T03:11:11;16.63;;;15.13;;
15878;SDS011;61999;51.514;14.614;2022-08-21T03:13:41;19.00;;;17.00;;
15878;SDS011;61999;51.514;14.614;2022-08-21T03:16:12;18.90;;;17.00;;
15878;SDS011;61999;51.514;14.614;2022-08-21T03:18:41;17.73;;;16.13;;
15878;SDS011;61999;51.514;14.614;2022-08-21T03:21:08;18.53;;;16.73;;
15878;SDS011;61999;51.514;14.614;2022-08-21T03:23:36;16.87;;;15.10;;
15878;SDS011;61999;51.514;14.614;2022-08-21T03:26:06;18.23;;;16.33;;
15878;SDS011;61999;51.514;14.614;2022-08-21T03:28:35;18.63;;;16.80;;
15878;SDS011;61999;51.514;14.614;2022-08-21T03:31:04;18.57;;;16.77;;
15878;SDS011;61999;51.514;14.614;2022-08-21T03:33:32;17.90;;;16.00;;
15878;SDS011;61999;51.514;14.614;2022-08-21T03:36:02;16.33;;;14.80;;
15878;SDS011;61999;51.514;14.614;2022-08-21T03:38:34;16.30;;;14.73;;
15878;SDS011;61999;51.514;14.614;2022-08-21T03:41:04;16.90;;;15.30;;
15878;SDS011;61999;51.514;14.614;2022-08-21T03:43:34;13.50;;;12.10;;
15878;SDS011;61999;51.514;14.614;2022-08-21T03:46:05;15.80;;;14.40;;
15878;SDS011;61999;51.514;14.614;2022-08-21T03:48:35;15.33;;;13.93;;
15878;SDS011;61999;51.514;14.614;2022-08-21T03:51:03;13.20;;;11.90;;
15878;SDS011;61999;51.514;14.614;2022-08-21T03:53:32;11.97;;;10.77;;
15878;SDS011;61999;51.514;14.614;2022-08-21T03:56:01;12.33;;;11.07;;
15878;SDS011;61999;51.514;14.614;2022-08-21T03:58:29;13.13;;;11.83;;
15878;SDS011;61999;51.514;14.614;2022-08-21T04:00:59;13.57;;;12.10;;
15878;SDS011;61999;51.514;14.614;2022-08-21T04:03:30;9.93;;;9.03;;
15878;SDS011;61999;51.514;14.614;2022-08-21T04:05:58;10.57;;;9.53;;
15878;SDS011;61999;51.514;14.614;2022-08-21T04:08:26;10.03;;;9.13;;
15878;SDS011;61999;51.514;14.614;2022-08-21T04:10:55;11.33;;;10.33;;
15878;SDS011;61999;51.514;14.614;2022-08-21T04:13:25;11.53;;;10.33;;
15878;SDS011;61999;51.514;14.614;2022-08-21T04:15:54;11.67;;;10.53;;
15878;SDS011;61999;51.514;14.614;2022-08-21T04:18:24;10.23;;;9.10;;
15878;SDS011;61999;51.514;14.614;2022-08-21T04:20:53;8.83;;;8.03;;
15878;SDS011;61999;51.514;14.614;2022-08-21T04:23:25;9.20;;;8.40;;
15878;SDS011;61999;51.514;14.614;2022-08-21T04:25:54;9.43;;;8.53;;
15878;SDS011;61999;51.514;14.614;2022-08-21T04:28:24;9.70;;;8.23;;
15878;SDS011;61999;51.514;14.614;2022-08-21T04:30:54;10.57;;;9.53;;
15878;SDS011;61999;51.514;14.614;2022-08-21T04:33:23;10.20;;;9.30;;
15878;SDS011;61999;51.514;14.614;2022-08-21T04:35:51;10.10;;;9.23;;
15878;SDS011;61999;51.514;14.614;2022-08-21T04:38:21;12.10;;;10.90;;
15878;SDS011;61999;51.514;14.614;2022-08-21T04:40:49;10.37;;;9.47;;
15878;SDS011;61999;51.514;14.614;2022-08-21T04:43:19;11.83;;;10.73;;
15878;SDS011;61999;51.514;14.614;2022-08-21T04:45:49;10.20;;;9.07;;
15878;SDS011;61999;51.514;14.614;2022-08-21T04:48:20;10.17;;;9.17;;
15878;SDS011;61999;51.514;14.614;2022-08-21T04:50:52;10.30;;;9.40;;
15878;SDS011;61999;51.514;14.614;2022-08-21T04:53:26;8.93;;;8.13;;
15878;SDS011;61999;51.514;14.614;2022-08-21T04:56:00;9.17;;;8.30;;
15878;SDS011;61999;51.514;14.614;2022-08-21T04:58:34;11.40;;;9.37;;
15878;SDS011;61999;51.514;14.614;2022-08-21T05:01:06;9.33;;;8.07;;
15878;SDS011;61999;51.514;14.614;2022-08-21T05:03:40;10.97;;;9.50;;
15878;SDS011;61999;51.514;14.614;2022-08-21T05:06:11;8.60;;;7.77;;
15878;SDS011;61999;51.514;14.614;2022-08-21T05:08:43;10.40;;;9.47;;
15878;SDS011;61999;51.514;14.614;2022-08-21T05:11:15;9.90;;;9.00;;
15878;SDS011;61999;51.514;14.614;2022-08-21T05:13:43;10.27;;;9.27;;
15878;SDS011;61999;51.514;14.614;2022-08-21T05:16:11;9.87;;;8.87;;
15878;SDS011;61999;51.514;14.614;2022-08-21T05:18:39;9.57;;;8.57;;
15878;SDS011;61999;51.514;14.614;2022-08-21T05:21:07;11.13;;;10.07;;
15878;SDS011;61999;51.514;14.614;2022-08-21T05:23:37;10.23;;;9.23;;
15878;SDS011;61999;51.514;14.614;2022-08-21T05:26:05;8.50;;;7.70;;
15878;SDS011;61999;51.514;14.614;2022-08-21T05:28:33;10.30;;;9.30;;
15878;SDS011;61999;51.514;14.614;2022-08-21T05:31:01;9.77;;;8.87;;
15878;SDS011;61999;51.514;14.614;2022-08-21T05:33:28;11.17;;;10.07;;
15878;SDS011;61999;51.514;14.614;2022-08-21T05:35:56;10.10;;;9.20;;
15878;SDS011;61999;51.514;14.614;2022-08-21T05:38:25;10.40;;;9.37;;
15878;SDS011;61999;51.514;14.614;2022-08-21T05:40:56;10.83;;;9.83;;
15878;SDS011;61999;51.514;14.614;2022-08-21T05:43:24;8.90;;;8.17;;
15878;SDS011;61999;51.514;14.614;2022-08-21T05:45:51;9.00;;;8.10;;
15878;SDS011;61999;51.514;14.614;2022-08-21T05:48:20;9.77;;;8.80;;
15878;SDS011;61999;51.514;14.614;2022-08-21T05:50:51;10.03;;;9.07;;
15878;SDS011;61999;51.514;14.614;2022-08-21T05:53:20;9.63;;;8.73;;
15878;SDS011;61999;51.514;14.614;2022-08-21T05:55:50;8.57;;;7.77;;
15878;SDS011;61999;51.514;14.614;2022-08-21T05:58:21;9.27;;;8.30;;
15878;SDS011;61999;51.514;14.614;2022-08-21T06:00:50;9.27;;;8.37;;
15878;SDS011;61999;51.514;14.614;2022-08-21T06:03:20;9.63;;;8.77;;
15878;SDS011;61999;51.514;14.614;2022-08-21T06:05:50;8.30;;;7.50;;
15878;SDS011;61999;51.514;14.614;2022-08-21T06:08:19;8.63;;;7.73;;
15878;SDS011;61999;51.514;14.614;2022-08-21T06:10:49;7.87;;;7.07;;
15878;SDS011;61999;51.514;14.614;2022-08-21T06:13:21;9.43;;;8.53;;
15878;SDS011;61999;51.514;14.614;2022-08-21T06:15:50;7.60;;;6.90;;
15878;SDS011;61999;51.514;14.614;2022-08-21T06:18:31;8.53;;;7.70;;
15878;SDS011;61999;51.514;14.614;2022-08-21T06:20:59;6.50;;;6.00;;
15878;SDS011;61999;51.514;14.614;2022-08-21T06:23:27;8.90;;;8.10;;
15878;SDS011;61999;51.514;14.614;2022-08-21T06:25:55;8.40;;;7.70;;
15878;SDS011;61999;51.514;14.614;2022-08-21T06:28:25;8.60;;;6.90;;
15878;SDS011;61999;51.514;14.614;2022-08-21T06:30:53;7.20;;;6.50;;
15878;SDS011;61999;51.514;14.614;2022-08-21T06:33:21;8.70;;;7.90;;
15878;SDS011;61999;51.514;14.614;2022-08-21T06:35:50;9.20;;;8.20;;
15878;SDS011;61999;51.514;14.614;2022-08-21T06:38:18;9.03;;;7.90;;
15878;SDS011;61999;51.514;14.614;2022-08-21T06:40:46;9.67;;;8.73;;
15878;SDS011;61999;51.514;14.614;2022-08-21T06:43:15;7.53;;;6.83;;
15878;SDS011;61999;51.514;14.614;2022-08-21T06:45:45;10.00;;;9.00;;
15878;SDS011;61999;51.514;14.614;2022-08-21T06:48:13;8.63;;;7.63;;
15878;SDS011;61999;51.514;14.614;2022-08-21T06:50:44;9.23;;;8.43;;
15878;SDS011;61999;51.514;14.614;2022-08-21T06:53:13;9.47;;;8.47;;
15878;SDS011;61999;51.514;14.614;2022-08-21T06:55:43;11.20;;;8.60;;
15878;SDS011;61999;51.514;14.614;2022-08-21T06:58:13;8.10;;;7.30;;
15878;SDS011;61999;51.514;14.614;2022-08-21T07:00:42;10.13;;;9.20;;
15878;SDS011;61999;51.514;14.614;2022-08-21T07:03:16;9.97;;;9.00;;
15878;SDS011;61999;51.514;14.614;2022-08-21T07:05:46;8.97;;;8.17;;
15878;SDS011;61999;51.514;14.614;2022-08-21T07:08:14;10.50;;;9.50;;
15878;SDS011;61999;51.514;14.614;2022-08-21T07:10:43;10.10;;;9.10;;
15878;SDS011;61999;51.514;14.614;2022-08-21T07:13:12;8.17;;;7.47;;
15878;SDS011;61999;51.514;14.614;2022-08-21T07:15:41;10.47;;;8.83;;
15878;SDS011;61999;51.514;14.614;2022-08-21T07:18:10;11.07;;;8.27;;
15878;SDS011;61999;51.514;14.614;2022-08-21T07:20:39;10.40;;;8.40;;
15878;SDS011;61999;51.514;14.614;2022-08-21T07:23:09;10.00;;;8.13;;
15878;SDS011;61999;51.514;14.614;2022-08-21T07:25:42;10.47;;;8.70;;
15878;SDS011;61999;51.514;14.614;2022-08-21T07:28:10;10.50;;;8.90;;
15878;SDS011;61999;51.514;14.614;2022-08-21T07:30:38;9.60;;;8.70;;
15878;SDS011;61999;51.514;14.614;2022-08-21T07:33:05;8.43;;;7.60;;
15878;SDS011;61999;51.514;14.614;2022-08-21T07:35:35;8.90;;;8.00;;
15878;SDS011;61999;51.514;14.614;2022-08-21T07:38:03;10.53;;;9.63;;
15878;SDS011;61999;51.514;14.614;2022-08-21T07:40:31;10.43;;;8.30;;
15878;SDS011;61999;51.514;14.614;2022-08-21T07:42:59;8.90;;;7.93;;
15878;SDS011;61999;51.514;14.614;2022-08-21T07:45:27;10.27;;;9.27;;
15878;SDS011;61999;51.514;14.614;2022-08-21T07:47:55;9.93;;;8.93;;
15878;SDS011;61999;51.514;14.614;2022-08-21T07:50:23;8.77;;;7.70;;
15878;SDS011;61999;51.514;14.614;2022-08-21T07:52:53;9.60;;;8.57;;
15878;SDS011;61999;51.514;14.614;2022-08-21T07:55:22;9.73;;;8.83;;
15878;SDS011;61999;51.514;14.614;2022-08-21T07:57:50;8.90;;;8.00;;
15878;SDS011;61999;51.514;14.614;2022-08-21T08:00:19;9.70;;;7.60;;
15878;SDS011;61999;51.514;14.614;2022-08-21T08:02:52;8.00;;;7.30;;
15878;SDS011;61999;51.514;14.614;2022-08-21T08:05:23;7.73;;;7.03;;
15878;SDS011;61999;51.514;14.614;2022-08-21T08:07:58;10.80;;;8.20;;
15878;SDS011;61999;51.514;14.614;2022-08-21T08:10:26;9.17;;;7.63;;
15878;SDS011;61999;51.514;14.614;2022-08-21T08:12:54;8.00;;;7.20;;
15878;SDS011;61999;51.514;14.614;2022-08-21T08:15:23;7.50;;;6.80;;
15878;SDS011;61999;51.514;14.614;2022-08-21T08:17:54;8.07;;;7.37;;
15878;SDS011;61999;51.514;14.614;2022-08-21T08:20:23;7.53;;;6.40;;
15878;SDS011;61999;51.514;14.614;2022-08-21T08:22:52;7.10;;;6.50;;
15878;SDS011;61999;51.514;14.614;2022-08-21T08:25:23;7.37;;;6.13;;
15878;SDS011;61999;51.514;14.614;2022-08-21T08:27:54;6.47;;;5.70;;
15878;SDS011;61999;51.514;14.614;2022-08-21T08:30:22;6.10;;;5.50;;
15878;SDS011;61999;51.514;14.614;2022-08-21T08:32:50;6.20;;;5.70;;
15878;SDS011;61999;51.514;14.614;2022-08-21T08:35:19;5.40;;;4.90;;
15878;SDS011;61999;51.514;14.614;2022-08-21T08:37:47;5.80;;;5.17;;
15878;SDS011;61999;51.514;14.614;2022-08-21T08:40:18;5.77;;;5.17;;
15878;SDS011;61999;51.514;14.614;2022-08-21T08:42:55;6.20;;;5.60;;
15878;SDS011;61999;51.514;14.614;2022-08-21T08:45:23;6.40;;;4.80;;
15878;SDS011;61999;51.514;14.614;2022-08-21T08:47:53;5.00;;;4.60;;
15878;SDS011;61999;51.514;14.614;2022-08-21T08:50:33;5.13;;;4.23;;
15878;SDS011;61999;51.514;14.614;2022-08-21T08:53:10;5.80;;;4.17;;
15878;SDS011;61999;51.514;14.614;2022-08-21T08:55:48;4.47;;;4.00;;
15878;SDS011;61999;51.514;14.614;2022-08-21T08:58:22;4.43;;;3.23;;
15878;SDS011;61999;51.514;14.614;2022-08-21T09:00:54;5.57;;;3.90;;
15878;SDS011;61999;51.514;14.614;2022-08-21T09:03:23;5.53;;;4.03;;
15878;SDS011;61999;51.514;14.614;2022-08-21T09:05:54;5.10;;;4.17;;
15878;SDS011;61999;51.514;14.614;2022-08-21T09:08:40;6.00;;;3.90;;
15878;SDS011;61999;51.514;14.614;2022-08-21T09:11:25;4.53;;;3.83;;
15878;SDS011;61999;51.514;14.614;2022-08-21T09:14:01;4.43;;;3.77;;
15878;SDS011;61999;51.514;14.614;2022-08-21T09:16:46;3.53;;;3.23;;
15878;SDS011;61999;51.514;14.614;2022-08-21T09:19:26;3.73;;;3.27;;
15878;SDS011;61999;51.514;14.614;2022-08-21T09:22:15;4.53;;;3.47;;
15878;SDS011;61999;51.514;14.614;2022-08-21T09:24:59;4.97;;;3.90;;
15878;SDS011;61999;51.514;14.614;2022-08-21T09:27:43;4.43;;;3.63;;
15878;SDS011;61999;51.514;14.614;2022-08-21T09:30:11;4.17;;;3.00;;
15878;SDS011;61999;51.514;14.614;2022-08-21T09:32:40;6.47;;;3.73;;
15878;SDS011;61999;51.514;14.614;2022-08-21T09:35:09;3.47;;;3.10;;
15878;SDS011;61999;51.514;14.614;2022-08-21T09:37:48;6.07;;;3.80;;
15878;SDS011;61999;51.514;14.614;2022-08-21T09:40:23;4.97;;;2.90;;
15878;SDS011;61999;51.514;14.614;2022-08-21T09:43:02;3.07;;;2.63;;
15878;SDS011;61999;51.514;14.614;2022-08-21T09:45:33;5.50;;;3.03;;
15878;SDS011;61999;51.514;14.614;2022-08-21T09:48:09;4.83;;;3.07;;
15878;SDS011;61999;51.514;14.614;2022-08-21T09:50:41;4.03;;;3.00;;
15878;SDS011;61999;51.514;14.614;2022-08-21T09:53:15;5.37;;;3.40;;
15878;SDS011;61999;51.514;14.614;2022-08-21T09:55:47;5.00;;;2.70;;
15878;SDS011;61999;51.514;14.614;2022-08-21T09:58:39;3.97;;;2.70;;
15878;SDS011;61999;51.514;14.614;2022-08-21T10:01:13;3.97;;;2.50;;
15878;SDS011;61999;51.514;14.614;2022-08-21T10:03:45;4.87;;;2.80;;
15878;SDS011;61999;51.514;14.614;2022-08-21T10:06:21;4.53;;;2.90;;
15878;SDS011;61999;51.514;14.614;2022-08-21T10:09:02;4.23;;;3.03;;
15878;SDS011;61999;51.514;14.614;2022-08-21T10:11:33;3.03;;;2.50;;
15878;SDS011;61999;51.514;14.614;2022-08-21T10:14:06;4.73;;;2.90;;
15878;SDS011;61999;51.514;14.614;2022-08-21T10:16:51;4.10;;;2.80;;
15878;SDS011;61999;51.514;14.614;2022-08-21T10:19:32;4.17;;;2.70;;
15878;SDS011;61999;51.514;14.614;2022-08-21T10:22:14;3.87;;;2.60;;
15878;SDS011;61999;51.514;14.614;2022-08-21T10:25:01;4.03;;;2.83;;
15878;SDS011;61999;51.514;14.614;2022-08-21T10:27:44;4.07;;;2.40;;
15878;SDS011;61999;51.514;14.614;2022-08-21T10:30:36;3.10;;;2.77;;
15878;SDS011;61999;51.514;14.614;2022-08-21T10:33:20;3.17;;;1.97;;
15878;SDS011;61999;51.514;14.614;2022-08-21T10:36:08;4.73;;;3.13;;
15878;SDS011;61999;51.514;14.614;2022-08-21T10:38:54;5.13;;;2.90;;
15878;SDS011;61999;51.514;14.614;2022-08-21T10:41:57;3.77;;;2.53;;
15878;SDS011;61999;51.514;14.614;2022-08-21T10:44:46;3.27;;;2.37;;
15878;SDS011;61999;51.514;14.614;2022-08-21T10:47:32;4.37;;;2.60;;
15878;SDS011;61999;51.514;14.614;2022-08-21T10:50:09;5.37;;;2.40;;
15878;SDS011;61999;51.514;14.614;2022-08-21T10:55:55;3.80;;;2.20;;
15878;SDS011;61999;51.514;14.614;2022-08-21T10:58:29;4.37;;;2.33;;
15878;SDS011;61999;51.514;14.614;2022-08-21T11:01:04;3.87;;;2.77;;
15878;SDS011;61999;51.514;14.614;2022-08-21T11:03:41;5.83;;;2.30;;
15878;SDS011;61999;51.514;14.614;2022-08-21T11:06:14;3.30;;;2.03;;
15878;SDS011;61999;51.514;14.614;2022-08-21T11:08:48;3.33;;;2.30;;
15878;SDS011;61999;51.514;14.614;2022-08-21T11:11:24;4.03;;;2.40;;
15878;SDS011;61999;51.514;14.614;2022-08-21T11:13:58;4.00;;;2.40;;
15878;SDS011;61999;51.514;14.614;2022-08-21T11:16:33;2.73;;;1.80;;
15878;SDS011;61999;51.514;14.614;2022-08-21T11:19:13;3.53;;;2.40;;
15878;SDS011;61999;51.514;14.614;2022-08-21T11:21:50;4.27;;;2.47;;
15878;SDS011;61999;51.514;14.614;2022-08-21T11:24:29;2.47;;;1.63;;
15878;SDS011;61999;51.514;14.614;2022-08-21T11:27:03;3.97;;;2.57;;
15878;SDS011;61999;51.514;14.614;2022-08-21T11:29:44;4.37;;;2.43;;
15878;SDS011;61999;51.514;14.614;2022-08-21T11:32:31;5.63;;;3.00;;
15878;SDS011;61999;51.514;14.614;2022-08-21T11:35:32;3.43;;;1.83;;
15878;SDS011;61999;51.514;14.614;2022-08-21T11:38:11;3.37;;;2.10;;
15878;SDS011;61999;51.514;14.614;2022-08-21T11:41:10;5.20;;;2.60;;
15878;SDS011;61999;51.514;14.614;2022-08-21T11:43:53;2.50;;;1.93;;
15878;SDS011;61999;51.514;14.614;2022-08-21T11:46:38;4.47;;;2.47;;
15878;SDS011;61999;51.514;14.614;2022-08-21T11:49:19;3.37;;;1.80;;
15878;SDS011;61999;51.514;14.614;2022-08-21T11:52:07;3.87;;;2.30;;
15878;SDS011;61999;51.514;14.614;2022-08-21T11:54:44;3.50;;;1.97;;
15878;SDS011;61999;51.514;14.614;2022-08-21T11:57:21;2.60;;;2.10;;
15878;SDS011;61999;51.514;14.614;2022-08-21T11:59:57;5.50;;;3.00;;
15878;SDS011;61999;51.514;14.614;2022-08-21T12:02:34;5.57;;;3.03;;
15878;SDS011;61999;51.514;14.614;2022-08-21T12:05:25;3.77;;;2.70;;
15878;SDS011;61999;51.514;14.614;2022-08-21T12:08:04;3.97;;;2.97;;
15878;SDS011;61999;51.514;14.614;2022-08-21T12:10:38;4.47;;;2.33;;
15878;SDS011;61999;51.514;14.614;2022-08-21T12:13:10;4.43;;;2.20;;
15878;SDS011;61999;51.514;14.614;2022-08-21T12:15:51;6.00;;;3.50;;
15878;SDS011;61999;51.514;14.614;2022-08-21T12:18:21;3.47;;;2.60;;
15878;SDS011;61999;51.514;14.614;2022-08-21T12:20:58;4.03;;;2.87;;
15878;SDS011;61999;51.514;14.614;2022-08-21T12:23:33;6.00;;;4.00;;
15878;SDS011;61999;51.514;14.614;2022-08-21T12:26:18;1.97;;;1.83;;
15878;SDS011;61999;51.514;14.614;2022-08-21T12:29:04;3.33;;;2.70;;
15878;SDS011;61999;51.514;14.614;2022-08-21T12:31:48;4.83;;;3.30;;
15878;SDS011;61999;51.514;14.614;2022-08-21T12:34:25;5.23;;;2.50;;
15878;SDS011;61999;51.514;14.614;2022-08-21T12:37:04;3.67;;;2.37;;
15878;SDS011;61999;51.514;14.614;2022-08-21T12:39:47;3.17;;;2.23;;
15878;SDS011;61999;51.514;14.614;2022-08-21T12:42:20;3.70;;;2.00;;
15878;SDS011;61999;51.514;14.614;2022-08-21T12:44:58;3.17;;;2.40;;
15878;SDS011;61999;51.514;14.614;2022-08-21T12:47:33;5.13;;;2.73;;
15878;SDS011;61999;51.514;14.614;2022-08-21T12:50:15;3.03;;;2.30;;
15878;SDS011;61999;51.514;14.614;2022-08-21T12:52:48;5.13;;;2.93;;
15878;SDS011;61999;51.514;14.614;2022-08-21T12:55:28;4.57;;;2.50;;
15878;SDS011;61999;51.514;14.614;2022-08-21T12:57:59;2.53;;;2.00;;
15878;SDS011;61999;51.514;14.614;2022-08-21T13:00:28;3.83;;;2.03;;
15878;SDS011;61999;51.514;14.614;2022-08-21T13:02:57;3.83;;;1.93;;
15878;SDS011;61999;51.514;14.614;2022-08-21T13:05:29;2.47;;;1.80;;
15878;SDS011;61999;51.514;14.614;2022-08-21T13:08:03;3.47;;;2.13;;
15878;SDS011;61999;51.514;14.614;2022-08-21T13:10:35;3.00;;;1.90;;
15878;SDS011;61999;51.514;14.614;2022-08-21T13:13:06;3.07;;;2.33;;
15878;SDS011;61999;51.514;14.614;2022-08-21T13:15:42;3.43;;;2.07;;
15878;SDS011;61999;51.514;14.614;2022-08-21T13:18:19;3.70;;;1.80;;
15878;SDS011;61999;51.514;14.614;2022-08-21T13:20:49;1.97;;;1.53;;
15878;SDS011;61999;51.514;14.614;2022-08-21T13:23:22;3.53;;;2.07;;
15878;SDS011;61999;51.514;14.614;2022-08-21T13:25:55;3.67;;;2.10;;
15878;SDS011;61999;51.514;14.614;2022-08-21T13:28:25;6.07;;;3.43;;
15878;SDS011;61999;51.514;14.614;2022-08-21T13:31:05;2.83;;;2.30;;
15878;SDS011;61999;51.514;14.614;2022-08-21T13:33:37;2.30;;;1.83;;
15878;SDS011;61999;51.514;14.614;2022-08-21T13:36:09;3.40;;;1.70;;
15878;SDS011;61999;51.514;14.614;2022-08-21T13:38:47;1.83;;;1.60;;
15878;SDS011;61999;51.514;14.614;2022-08-21T13:41:19;1.73;;;1.63;;
15878;SDS011;61999;51.514;14.614;2022-08-21T13:43:56;2.42;;;1.52;;
15878;SDS011;61999;51.514;14.614;2022-08-21T13:46:26;1.70;;;1.40;;
15878;SDS011;61999;51.514;14.614;2022-08-21T13:48:59;2.22;;;1.80;;
15878;SDS011;61999;51.514;14.614;2022-08-21T13:51:30;3.45;;;1.83;;
15878;SDS011;61999;51.514;14.614;2022-08-21T13:54:01;3.30;;;1.67;;
15878;SDS011;61999;51.514;14.614;2022-08-21T13:56:43;3.30;;;1.60;;
15878;SDS011;61999;51.514;14.614;2022-08-21T13:59:23;1.70;;;1.45;;
15878;SDS011;61999;51.514;14.614;2022-08-21T14:01:54;3.25;;;1.40;;
15878;SDS011;61999;51.514;14.614;2022-08-21T14:04:30;2.35;;;1.40;;
15878;SDS011;61999;51.514;14.614;2022-08-21T14:07:03;1.43;;;1.33;;
15878;SDS011;61999;51.514;14.614;2022-08-21T14:09:45;1.67;;;1.30;;
15878;SDS011;61999;51.514;14.614;2022-08-21T14:12:17;1.70;;;1.57;;
15878;SDS011;61999;51.514;14.614;2022-08-21T14:14:54;2.10;;;1.60;;
15878;SDS011;61999;51.514;14.614;2022-08-21T14:17:26;5.33;;;2.00;;
15878;SDS011;61999;51.514;14.614;2022-08-21T14:19:57;2.27;;;1.50;;
15878;SDS011;61999;51.514;14.614;2022-08-21T14:22:29;2.30;;;1.80;;
15878;SDS011;61999;51.514;14.614;2022-08-21T14:25:28;1.93;;;1.27;;
15878;SDS011;61999;51.514;14.614;2022-08-21T14:28:32;3.13;;;1.50;;
15878;SDS011;61999;51.514;14.614;2022-08-21T14:31:29;2.57;;;1.73;;
15878;SDS011;61999;51.514;14.614;2022-08-21T14:34:25;1.93;;;1.73;;
15878;SDS011;61999;51.514;14.614;2022-08-21T14:37:20;2.50;;;1.80;;
15878;SDS011;61999;51.514;14.614;2022-08-21T14:40:12;3.43;;;1.60;;
15878;SDS011;61999;51.514;14.614;2022-08-21T14:43:04;2.40;;;1.60;;
15878;SDS011;61999;51.514;14.614;2022-08-21T14:45:59;3.60;;;1.70;;
15878;SDS011;61999;51.514;14.614;2022-08-21T14:48:52;2.80;;;1.70;;
15878;SDS011;61999;51.514;14.614;2022-08-21T14:51:45;1.33;;;1.23;;
15878;SDS011;61999;51.514;14.614;2022-08-21T14:54:37;2.50;;;1.57;;
15878;SDS011;61999;51.514;14.614;2022-08-21T14:57:29;3.13;;;1.30;;
15878;SDS011;61999;51.514;14.614;2022-08-21T15:00:22;1.83;;;1.60;;
15878;SDS011;61999;51.514;14.614;2022-08-21T15:03:17;3.57;;;1.47;;
15878;SDS011;61999;51.514;14.614;2022-08-21T15:06:11;2.10;;;1.73;;